Time;durP1;ratioP1;P1;durP2;ratioP2;P2;SDS_P1;SDS_P2;PMS_P1;PMS_P2;Temp;Humidity;BMP_temperature;BMP_pressure;BME280_temperature;BME280_humidity;BME280_pressure;Samples;Min_cycle;Max_cycle;Signal;HPM_P1;HPM_P2
2023/04/11 00:00:50;;;;;;;26.00;3.55;;;10.20;99.90;;;;;;5053425;28;20069;-88
2023/04/11 00:03:15;;;;;;;24.20;3.53;;;10.30;99.90;;;;;;5052300;28;20025;-88
2023/04/11 00:05:41;;;;;;;25.38;3.70;;;10.30;99.90;;;;;;5052834;28;20036;-88
2023/04/11 00:08:06;;;;;;;24.00;3.55;;;10.30;99.90;;;;;;5053215;28;20044;-88
2023/04/11 00:10:32;;;;;;;20.58;3.78;;;10.20;99.90;;;;;;5047833;28;20001;-88
2023/04/11 00:12:58;;;;;;;17.52;3.15;;;10.10;99.90;;;;;;5053252;28;20507;-88
2023/04/11 00:15:25;;;;;;;20.38;3.65;;;10.10;99.90;;;;;;5051466;28;20009;-89
2023/04/11 00:17:52;;;;;;;19.85;3.10;;;9.90;99.90;;;;;;5052525;28;20036;-88
2023/04/11 00:20:18;;;;;;;28.67;4.05;;;9.90;99.90;;;;;;5063527;28;20030;-88
2023/04/11 00:22:44;;;;;;;27.02;4.43;;;9.70;99.90;;;;;;5048913;28;20021;-88
2023/04/11 00:25:09;;;;;;;18.23;3.05;;;9.70;99.90;;;;;;5052308;28;20452;-88
2023/04/11 00:27:35;;;;;;;23.40;3.75;;;9.60;99.90;;;;;;5052945;28;20033;-88
2023/04/11 00:30:00;;;;;;;22.20;4.05;;;9.60;99.90;;;;;;5041249;28;20025;-88
2023/04/11 00:32:26;;;;;;;22.73;3.83;;;9.50;99.90;;;;;;5052084;28;20033;-89
2023/04/11 00:34:52;;;;;;;27.98;3.78;;;9.50;99.90;;;;;;5048706;28;20040;-88
2023/04/11 00:37:20;;;;;;;27.83;4.13;;;9.40;99.90;;;;;;5050389;28;20677;-88
2023/04/11 00:39:49;;;;;;;37.35;5.13;;;9.40;99.90;;;;;;5052182;28;20036;-88
2023/04/11 00:42:15;;;;;;;25.25;3.53;;;9.40;99.90;;;;;;5052342;28;20465;-88
2023/04/11 00:44:40;;;;;;;20.77;2.72;;;9.30;99.90;;;;;;5041687;28;20087;-88
2023/04/11 00:47:08;;;;;;;23.83;2.92;;;9.40;99.90;;;;;;5043226;28;20471;-88
2023/04/11 00:49:34;;;;;;;21.42;2.67;;;9.30;99.90;;;;;;5039088;28;20110;-88
2023/04/11 00:52:01;;;;;;;24.10;2.90;;;9.30;99.90;;;;;;5050770;28;20049;-89
2023/04/11 00:54:29;;;;;;;19.40;2.25;;;9.20;99.90;;;;;;5051499;28;20021;-88
2023/04/11 00:57:02;;;;;;;26.27;3.90;;;9.20;99.90;;;;;;5052733;28;20374;-87
2023/04/11 00:59:29;;;;;;;25.23;3.40;;;9.10;99.90;;;;;;5051565;28;20048;-88
2023/04/11 01:01:55;;;;;;;19.42;2.85;;;9.10;99.90;;;;;;5050475;28;20115;-88
2023/04/11 01:04:20;;;;;;;30.55;3.20;;;9.10;99.90;;;;;;5051322;28;20093;-88
2023/04/11 01:06:51;;;;;;;29.02;3.58;;;9.10;99.90;;;;;;5048208;28;20040;-89
2023/04/11 01:09:21;;;;;;;28.00;3.63;;;9.00;99.90;;;;;;5064112;28;20040;-88
2023/04/11 01:11:48;;;;;;;28.67;3.72;;;9.00;99.90;;;;;;5050940;28;20543;-89
2023/04/11 01:14:18;;;;;;;24.02;3.33;;;9.00;99.90;;;;;;5050722;28;20020;-88
2023/04/11 01:16:46;;;;;;;21.80;2.42;;;9.00;99.90;;;;;;5052221;28;20021;-88
2023/04/11 01:19:16;;;;;;;23.88;2.70;;;9.00;99.90;;;;;;5050318;28;20485;-89
2023/04/11 01:21:43;;;;;;;24.70;3.38;;;9.00;99.90;;;;;;5051715;28;20021;-88
2023/04/11 01:24:08;;;;;;;19.70;2.47;;;9.00;99.90;;;;;;5050047;28;20029;-87
2023/04/11 01:26:34;;;;;;;24.77;2.50;;;8.90;99.90;;;;;;5053209;28;20101;-88
2023/04/11 01:29:01;;;;;;;23.83;3.13;;;8.90;99.90;;;;;;5050672;28;20060;-89
2023/04/11 01:31:26;;;;;;;35.95;3.55;;;8.90;99.90;;;;;;5050336;28;20033;-89
2023/04/11 01:33:52;;;;;;;32.47;4.18;;;8.80;99.90;;;;;;5050966;28;20028;-88
2023/04/11 01:36:18;;;;;;;33.55;3.00;;;8.80;99.90;;;;;;5049892;28;20036;-88
2023/04/11 01:38:43;;;;;;;31.58;3.13;;;8.80;99.90;;;;;;5050348;28;20057;-88
2023/04/11 01:41:09;;;;;;;24.00;2.72;;;8.80;99.90;;;;;;5054949;28;20031;-88
2023/04/11 01:43:35;;;;;;;26.92;3.33;;;8.70;99.90;;;;;;5051224;28;20025;-88
2023/04/11 01:46:01;;;;;;;29.00;2.70;;;8.70;99.90;;;;;;5051476;28;20535;-89
2023/04/11 01:48:26;;;;;;;23.23;2.45;;;8.70;99.90;;;;;;5046732;28;20047;-89
2023/04/11 01:50:54;;;;;;;29.42;4.15;;;8.60;99.90;;;;;;5047230;28;20548;-87
2023/04/11 01:53:19;;;;;;;25.48;3.00;;;8.60;99.90;;;;;;5045699;28;20037;-88
2023/04/11 01:55:45;;;;;;;29.48;2.42;;;8.50;99.90;;;;;;5041350;28;20072;-88
2023/04/11 01:58:10;;;;;;;29.55;2.17;;;8.50;99.90;;;;;;5048948;28;20029;-89
2023/04/11 02:00:36;;;;;;;22.42;2.47;;;8.60;99.90;;;;;;5052061;28;20052;-89
2023/04/11 02:03:02;;;;;;;29.73;2.47;;;8.50;99.90;;;;;;5054652;28;20504;-89
2023/04/11 02:05:28;;;;;;;28.02;2.53;;;8.60;99.90;;;;;;5054694;28;20025;-88
2023/04/11 02:07:53;;;;;;;35.65;2.85;;;8.60;99.90;;;;;;5054643;28;20041;-88
2023/04/11 02:10:19;;;;;;;31.35;2.25;;;8.60;99.90;;;;;;5055085;28;20031;-89
2023/04/11 02:12:44;;;;;;;28.58;2.92;;;8.60;99.90;;;;;;5054262;28;20036;-89
2023/04/11 02:15:10;;;;;;;25.75;1.83;;;8.50;99.90;;;;;;5055116;28;20053;-88
2023/04/11 02:17:36;;;;;;;38.15;3.30;;;8.50;99.90;;;;;;5055576;28;20174;-88
2023/04/11 02:20:05;;;;;;;24.30;3.05;;;8.50;99.90;;;;;;5051756;28;20033;-89
2023/04/11 02:22:31;;;;;;;28.95;2.30;;;8.40;99.90;;;;;;5053605;28;20032;-88
2023/04/11 02:24:56;;;;;;;24.83;2.88;;;8.40;99.90;;;;;;5046840;28;20111;-88
2023/04/11 02:27:22;;;;;;;26.08;2.92;;;8.40;99.90;;;;;;5054613;28;20075;-88
2023/04/11 02:29:47;;;;;;;28.85;2.47;;;8.40;99.90;;;;;;5054555;28;20053;-88
2023/04/11 02:32:13;;;;;;;15.95;1.60;;;8.30;99.90;;;;;;5047300;28;20453;-88
2023/04/11 02:34:38;;;;;;;24.67;2.72;;;8.40;99.90;;;;;;5051873;28;20491;-88
2023/04/11 02:37:04;;;;;;;20.73;2.00;;;8.40;99.90;;;;;;5049031;28;20095;-88
2023/04/11 02:39:30;;;;;;;23.98;2.22;;;8.40;99.90;;;;;;5054261;28;20031;-88
2023/04/11 02:41:56;;;;;;;24.88;2.00;;;8.30;99.90;;;;;;5052986;28;20021;-88
2023/04/11 02:44:21;;;;;;;25.40;1.95;;;8.30;99.90;;;;;;5054438;28;20025;-88
2023/04/11 02:46:47;;;;;;;25.58;2.55;;;8.30;99.90;;;;;;5054782;28;20029;-88
2023/04/11 02:49:12;;;;;;;23.52;1.90;;;8.40;99.90;;;;;;5051352;28;20100;-88
2023/04/11 02:51:38;;;;;;;22.58;2.05;;;8.40;99.90;;;;;;5044960;28;20030;-88
2023/04/11 02:54:05;;;;;;;34.55;3.13;;;8.40;99.90;;;;;;5049209;28;20029;-89
2023/04/11 02:56:31;;;;;;;22.65;1.88;;;8.40;99.90;;;;;;5055633;28;20025;-88
2023/04/11 02:58:56;;;;;;;20.30;2.00;;;8.40;99.90;;;;;;5050115;28;20057;-88
2023/04/11 03:01:23;;;;;;;28.05;2.58;;;8.40;99.90;;;;;;5053223;28;20843;-88
2023/04/11 03:03:49;;;;;;;32.75;2.70;;;8.40;99.90;;;;;;5048889;28;20392;-88
2023/04/11 03:06:15;;;;;;;22.70;2.08;;;8.40;99.90;;;;;;5055000;28;20021;-87
2023/04/11 03:08:40;;;;;;;23.95;2.00;;;8.40;99.90;;;;;;5054364;28;20029;-88
2023/04/11 03:11:06;;;;;;;31.95;3.88;;;8.50;99.90;;;;;;5044999;28;20067;-88
2023/04/11 03:13:32;;;;;;;23.40;2.13;;;8.50;99.90;;;;;;5053496;28;20125;-88
2023/04/11 03:15:58;;;;;;;27.48;2.78;;;8.50;99.90;;;;;;5047057;28;20049;-88
2023/04/11 03:18:23;;;;;;;24.02;2.20;;;8.50;99.90;;;;;;5046203;28;20500;-89
2023/04/11 03:20:50;;;;;;;14.85;1.33;;;8.60;99.90;;;;;;5053893;28;20500;-89
2023/04/11 03:23:16;;;;;;;22.80;2.25;;;8.50;99.90;;;;;;5051439;28;20021;-89
2023/04/11 03:25:43;;;;;;;17.10;1.30;;;8.50;99.90;;;;;;5052449;28;20029;-88
2023/04/11 03:28:09;;;;;;;21.90;1.45;;;8.40;99.90;;;;;;5052765;28;20048;-89
2023/04/11 03:30:39;;;;;;;14.60;1.55;;;8.40;99.90;;;;;;5055309;28;20025;-88
2023/04/11 03:33:05;;;;;;;16.30;1.25;;;8.40;99.90;;;;;;5054007;28;20032;-88
2023/04/11 03:35:30;;;;;;;18.02;1.15;;;8.40;99.90;;;;;;5052833;28;20105;-88
2023/04/11 03:37:56;;;;;;;18.27;1.30;;;8.40;99.90;;;;;;5054136;28;20048;-88
2023/04/11 03:40:21;;;;;;;15.90;0.98;;;8.40;99.90;;;;;;5047620;28;20025;-88
2023/04/11 03:42:48;;;;;;;16.67;1.35;;;8.40;99.90;;;;;;5048840;28;20177;-88
2023/04/11 03:45:13;;;;;;;17.60;1.45;;;8.40;99.90;;;;;;5052683;28;20075;-88
2023/04/11 03:47:39;;;;;;;16.80;1.27;;;8.40;99.90;;;;;;5054222;28;20032;-89
2023/04/11 03:50:06;;;;;;;18.27;1.77;;;8.50;99.90;;;;;;5053228;28;20032;-88
2023/04/11 03:52:32;;;;;;;10.15;0.82;;;8.50;99.90;;;;;;5053086;28;20032;-87
2023/04/11 03:54:57;;;;;;;18.42;0.93;;;8.50;99.90;;;;;;5053408;28;20025;-88
2023/04/11 03:57:25;;;;;;;8.07;0.60;;;8.50;99.90;;;;;;5052790;28;20036;-88
2023/04/11 03:59:52;;;;;;;8.25;0.73;;;8.60;99.90;;;;;;5053179;28;20040;-88
2023/04/11 04:02:18;;;;;;;10.98;0.80;;;8.50;99.90;;;;;;5053844;28;20040;-88
2023/04/11 04:04:57;;;;;;;8.43;0.70;;;8.60;99.90;;;;;;5052031;28;20101;-88
2023/04/11 04:07:26;;;;;;;8.20;0.70;;;8.60;99.90;;;;;;5044396;28;20132;-88
2023/04/11 04:09:52;;;;;;;8.02;0.60;;;8.60;99.90;;;;;;5043347;28;20515;-87
2023/04/11 04:12:19;;;;;;;14.70;0.55;;;8.60;99.90;;;;;;5053149;28;20029;-88
2023/04/11 04:14:45;;;;;;;17.52;1.42;;;8.60;99.90;;;;;;5051510;28;20111;-88
2023/04/11 04:17:13;;;;;;;8.95;0.45;;;8.60;99.90;;;;;;5052287;28;20079;-88
2023/04/11 04:19:38;;;;;;;7.63;0.93;;;8.60;99.90;;;;;;5052738;28;20115;-88
2023/04/11 04:22:04;;;;;;;9.82;0.63;;;8.60;99.90;;;;;;5053046;28;20465;-87
2023/04/11 04:24:30;;;;;;;11.20;0.68;;;8.60;99.90;;;;;;5053394;28;20094;-87
2023/04/11 04:26:59;;;;;;;10.85;0.60;;;8.60;99.90;;;;;;5051209;28;20041;-88
2023/04/11 04:29:32;;;;;;;9.15;0.70;;;8.50;99.90;;;;;;5051854;28;20033;-88
2023/04/11 04:31:58;;;;;;;10.55;0.60;;;8.50;99.90;;;;;;5053285;28;20032;-87
2023/04/11 04:34:27;;;;;;;16.50;1.38;;;8.50;99.90;;;;;;5052461;28;20025;-87
2023/04/11 04:36:58;;;;;;;11.55;0.85;;;8.40;99.90;;;;;;5051461;28;20103;-87
2023/04/11 04:39:24;;;;;;;8.52;0.63;;;8.40;99.90;;;;;;5053029;28;20465;-88
2023/04/11 04:41:57;;;;;;;8.85;0.80;;;8.40;99.90;;;;;;5050988;28;20028;-87
2023/04/11 04:44:26;;;;;;;8.65;0.60;;;8.40;99.90;;;;;;5053596;28;20029;-88
2023/04/11 04:46:53;;;;;;;7.18;0.50;;;8.40;99.90;;;;;;5046362;28;20090;-88
2023/04/11 04:49:18;;;;;;;8.63;0.50;;;8.40;99.90;;;;;;5052225;28;20028;-88
2023/04/11 04:51:44;;;;;;;6.63;0.47;;;8.40;99.90;;;;;;5047002;28;20389;-88
2023/04/11 04:54:10;;;;;;;6.15;0.68;;;8.50;99.90;;;;;;5051490;28;20025;-88
2023/04/11 04:56:35;;;;;;;15.88;1.17;;;8.50;99.90;;;;;;5042659;28;20131;-89
2023/04/11 04:59:01;;;;;;;9.90;0.68;;;8.40;99.90;;;;;;5050323;28;20120;-89
2023/04/11 05:01:26;;;;;;;11.98;0.90;;;8.40;99.90;;;;;;5050627;28;20140;-89
2023/04/11 05:03:59;;;;;;;15.15;0.60;;;8.40;99.90;;;;;;5045980;28;20057;-89
2023/04/11 05:06:30;;;;;;;11.60;1.23;;;8.40;99.90;;;;;;5051569;28;20583;-89
2023/04/11 05:08:58;;;;;;;13.93;1.15;;;8.40;99.90;;;;;;5053267;28;20087;-89
2023/04/11 05:11:24;;;;;;;8.45;0.93;;;8.30;99.90;;;;;;5051777;28;20036;-89
2023/04/11 05:13:50;;;;;;;10.50;0.88;;;8.30;99.90;;;;;;5047263;28;20024;-89
2023/04/11 05:16:16;;;;;;;7.32;0.50;;;8.30;99.90;;;;;;5046512;28;20238;-89
2023/04/11 05:18:42;;;;;;;10.18;0.80;;;8.20;99.90;;;;;;5052773;28;20477;-89
2023/04/11 05:21:08;;;;;;;8.13;0.60;;;8.20;99.90;;;;;;5047995;28;20029;-89
2023/04/11 05:23:33;;;;;;;7.72;0.50;;;8.00;99.90;;;;;;5052113;28;20025;-88
2023/04/11 05:26:00;;;;;;;8.10;0.73;;;8.00;99.90;;;;;;5050637;28;20124;-88
2023/04/11 05:28:25;;;;;;;13.35;1.08;;;8.00;99.90;;;;;;5052080;28;20032;-89
2023/04/11 05:30:51;;;;;;;9.05;1.10;;;7.90;99.90;;;;;;5045174;28;20028;-88
2023/04/11 05:33:17;;;;;;;12.13;0.45;;;7.90;99.90;;;;;;5049337;28;20392;-89
2023/04/11 05:35:42;;;;;;;9.77;0.70;;;7.90;99.90;;;;;;5049314;28;20116;-88
2023/04/11 05:38:08;;;;;;;7.25;0.50;;;7.80;99.90;;;;;;5032537;28;20025;-89
2023/04/11 05:40:35;;;;;;;7.43;0.45;;;7.80;99.90;;;;;;5043616;28;20021;-89
2023/04/11 05:43:01;;;;;;;5.75;0.40;;;7.80;99.90;;;;;;5052147;28;20100;-88
2023/04/11 05:45:26;;;;;;;11.18;0.57;;;7.80;99.90;;;;;;5050752;28;20102;-88
2023/04/11 05:47:52;;;;;;;6.63;0.40;;;7.80;99.90;;;;;;5048395;28;20037;-88
2023/04/11 05:50:17;;;;;;;11.05;0.50;;;7.80;99.90;;;;;;5046215;28;20036;-88
2023/04/11 05:52:43;;;;;;;9.40;0.73;;;7.80;99.90;;;;;;5050083;28;20028;-89
2023/04/11 05:55:09;;;;;;;8.18;0.57;;;7.80;99.90;;;;;;5044408;28;20025;-89
2023/04/11 05:57:35;;;;;;;13.13;0.52;;;7.80;99.90;;;;;;5043781;28;20034;-89
2023/04/11 06:00:01;;;;;;;6.95;0.75;;;7.80;99.90;;;;;;5047368;28;20041;-89
2023/04/11 06:02:27;;;;;;;11.20;0.80;;;7.90;99.90;;;;;;5051410;28;20512;-89
2023/04/11 06:04:53;;;;;;;8.43;0.60;;;7.90;99.90;;;;;;5050251;28;20036;-89
2023/04/11 06:07:18;;;;;;;11.32;0.63;;;7.90;99.90;;;;;;5051124;28;20037;-88
2023/04/11 06:09:44;;;;;;;10.50;0.70;;;8.00;99.90;;;;;;5051450;28;20112;-90
2023/04/11 06:12:10;;;;;;;9.48;0.60;;;8.00;99.90;;;;;;5048428;28;20389;-88
2023/04/11 06:14:35;;;;;;;9.05;0.52;;;8.10;99.90;;;;;;5045486;28;20057;-88
2023/04/11 06:17:01;;;;;;;8.57;0.47;;;8.20;99.90;;;;;;5040039;28;20028;-88
2023/04/11 06:19:26;;;;;;;13.20;0.47;;;8.20;99.90;;;;;;5043505;28;20123;-90
2023/04/11 06:21:52;;;;;;;5.47;0.60;;;8.20;99.90;;;;;;5052814;28;20023;-88
2023/04/11 06:24:32;;;;;;;8.77;0.60;;;8.30;99.90;;;;;;5050433;28;20036;-89
2023/04/11 06:26:58;;;;;;;8.57;0.50;;;8.30;99.90;;;;;;5048753;28;20037;-89
2023/04/11 06:29:23;;;;;;;7.95;0.60;;;8.40;99.90;;;;;;5051365;28;20107;-88
2023/04/11 06:31:49;;;;;;;11.20;0.65;;;8.40;99.90;;;;;;5047394;28;20036;-89
2023/04/11 06:34:14;;;;;;;9.38;0.77;;;8.50;99.90;;;;;;5047008;28;20081;-89
2023/04/11 06:36:41;;;;;;;6.53;0.50;;;8.60;99.90;;;;;;5051194;28;20025;-88
2023/04/11 06:39:08;;;;;;;7.72;0.60;;;8.70;99.90;;;;;;5053044;28;20103;-89
2023/04/11 06:41:35;;;;;;;10.73;0.75;;;8.80;99.90;;;;;;5049445;28;20452;-88
2023/04/11 06:44:00;;;;;;;9.50;1.00;;;8.90;99.90;;;;;;5051244;28;20037;-88
2023/04/11 06:46:26;;;;;;;7.95;0.93;;;8.90;99.90;;;;;;5050742;28;21906;-88
2023/04/11 06:48:51;;;;;;;10.57;1.25;;;9.10;99.90;;;;;;5048778;28;20083;-88
2023/04/11 06:51:17;;;;;;;11.30;0.68;;;9.10;99.90;;;;;;5050258;28;20036;-88
2023/04/11 06:53:42;;;;;;;10.52;0.75;;;9.20;99.90;;;;;;5053557;28;20115;-89
2023/04/11 06:56:09;;;;;;;12.20;0.82;;;9.40;99.90;;;;;;5054492;28;20037;-89
2023/04/11 06:58:35;;;;;;;9.40;0.60;;;9.40;99.90;;;;;;5050133;28;20028;-89
2023/04/11 07:01:00;;;;;;;6.63;0.95;;;9.40;99.90;;;;;;5046447;28;20045;-89
2023/04/11 07:03:26;;;;;;;6.97;0.50;;;9.30;99.90;;;;;;5053706;28;20029;-90
2023/04/11 07:05:51;;;;;;;8.23;0.50;;;9.00;99.90;;;;;;5054250;28;20419;-90
2023/04/11 07:08:17;;;;;;;4.55;0.50;;;8.70;99.90;;;;;;5052335;28;20481;-90
2023/04/11 07:10:43;;;;;;;6.82;0.80;;;8.40;99.90;;;;;;5054435;28;20029;-91
2023/04/11 07:13:08;;;;;;;13.35;0.95;;;8.20;99.90;;;;;;5053755;28;20053;-89
2023/04/11 07:15:34;;;;;;;9.93;0.60;;;8.10;99.90;;;;;;5054669;28;20021;-89
2023/04/11 07:18:00;;;;;;;10.52;1.00;;;8.00;99.90;;;;;;5052514;28;20025;-90
2023/04/11 07:20:26;;;;;;;19.92;1.17;;;8.00;99.90;;;;;;5051061;28;20020;-90
2023/04/11 07:22:51;;;;;;;10.88;0.85;;;8.00;99.90;;;;;;5054375;28;20032;-89
2023/04/11 07:25:21;;;;;;;16.27;0.90;;;8.00;99.90;;;;;;5052263;28;20029;-89
2023/04/11 07:27:48;;;;;;;10.15;0.75;;;8.10;99.90;;;;;;5053092;28;20051;-88
2023/04/11 07:30:14;;;;;;;10.55;1.35;;;8.30;99.90;;;;;;5053770;28;20013;-89
2023/04/11 07:32:40;;;;;;;6.07;0.82;;;8.50;99.90;;;;;;5054240;28;20032;-83
2023/04/11 07:35:06;;;;;;;9.60;0.80;;;8.70;99.90;;;;;;5053749;28;20025;-87
2023/04/11 07:37:31;;;;;;;11.30;0.95;;;8.90;99.90;;;;;;5049987;28;20043;-89
2023/04/11 07:39:57;;;;;;;11.75;0.63;;;9.10;99.90;;;;;;5053496;28;20021;-88
2023/04/11 07:42:22;;;;;;;11.55;0.95;;;9.20;99.90;;;;;;5049781;28;20033;-88
2023/04/11 07:44:48;;;;;;;15.65;1.40;;;9.50;99.90;;;;;;5051739;28;20029;-88
2023/04/11 07:47:13;;;;;;;16.88;1.23;;;9.60;99.90;;;;;;5047847;28;20046;-89
2023/04/11 07:49:39;;;;;;;14.95;1.02;;;9.80;99.90;;;;;;5050546;28;20469;-91
2023/04/11 07:52:05;;;;;;;8.13;0.80;;;9.90;99.90;;;;;;5044565;28;20032;-93
2023/04/11 07:54:30;;;;;;;10.68;0.85;;;9.60;99.90;;;;;;5046029;28;20346;-91
2023/04/11 07:56:56;;;;;;;7.50;0.70;;;9.20;99.90;;;;;;5051463;28;20052;-93
2023/04/11 07:59:22;;;;;;;9.80;1.10;;;9.10;99.90;;;;;;5051976;28;20024;-92
2023/04/11 08:01:47;;;;;;;7.70;0.60;;;9.00;99.90;;;;;;5051841;28;20492;-92
2023/04/11 08:04:16;;;;;;;12.38;1.10;;;9.10;99.90;;;;;;5046008;28;20489;-90
2023/04/11 08:06:42;;;;;;;10.52;0.85;;;9.20;99.90;;;;;;5052165;28;20028;-90
2023/04/11 08:09:07;;;;;;;9.55;1.45;;;9.40;99.90;;;;;;5044598;28;20025;-89
2023/04/11 08:11:33;;;;;;;11.13;0.77;;;9.60;99.90;;;;;;5052144;28;20504;-90
2023/04/11 08:13:58;;;;;;;10.35;1.55;;;9.70;99.90;;;;;;5040153;28;20075;-89
2023/04/11 08:16:24;;;;;;;20.85;1.17;;;9.80;99.90;;;;;;5048508;28;20112;-89
2023/04/11 08:18:49;;;;;;;7.93;0.80;;;9.80;99.90;;;;;;5050314;28;20552;-89
2023/04/11 08:21:15;;;;;;;10.57;0.90;;;9.70;99.90;;;;;;5060875;28;20427;-88
2023/04/11 08:23:41;;;;;;;10.15;0.90;;;9.80;99.90;;;;;;5050673;28;20486;-88
2023/04/11 08:26:08;;;;;;;13.40;0.90;;;9.90;99.90;;;;;;5052020;28;20053;-89
2023/04/11 08:28:34;;;;;;;7.28;0.77;;;10.10;99.90;;;;;;5053285;28;20560;-89
2023/04/11 08:31:02;;;;;;;10.65;0.82;;;10.20;99.90;;;;;;5051163;28;20426;-89
2023/04/11 08:33:28;;;;;;;7.88;0.50;;;10.30;99.90;;;;;;5055495;28;20028;-90
2023/04/11 08:35:54;;;;;;;7.35;0.90;;;10.40;99.90;;;;;;5045750;28;20028;-88
2023/04/11 08:38:19;;;;;;;8.43;0.50;;;10.50;99.90;;;;;;5051887;28;20033;-88
2023/04/11 08:40:45;;;;;;;8.65;0.70;;;10.60;99.90;;;;;;5048065;28;20028;-88
2023/04/11 08:43:11;;;;;;;4.50;0.32;;;10.60;99.90;;;;;;5054456;28;20021;-89
2023/04/11 08:45:38;;;;;;;10.60;0.63;;;10.80;99.90;;;;;;5054287;28;20051;-87
2023/04/11 08:48:05;;;;;;;11.77;0.80;;;10.70;99.90;;;;;;5054758;28;20100;-88
2023/04/11 08:50:31;;;;;;;7.43;0.60;;;10.70;99.90;;;;;;5046678;28;20040;-89
2023/04/11 08:53:01;;;;;;;8.23;0.80;;;10.70;99.90;;;;;;5055679;28;20119;-89
2023/04/11 08:55:27;;;;;;;8.65;0.50;;;10.80;99.90;;;;;;5052893;28;20032;-89
2023/04/11 08:57:53;;;;;;;7.85;0.65;;;10.90;99.90;;;;;;5051467;28;20029;-89
2023/04/11 09:00:22;;;;;;;6.72;0.70;;;11.10;99.90;;;;;;5052298;28;20536;-89
2023/04/11 09:02:56;;;;;;;9.05;0.68;;;11.30;99.90;;;;;;5052728;28;20477;-87
2023/04/11 09:05:28;;;;;;;6.45;0.68;;;11.30;99.90;;;;;;5052321;28;20096;-87
2023/04/11 09:07:54;;;;;;;7.78;0.50;;;11.20;99.90;;;;;;5045828;28;20048;-88
2023/04/11 09:10:20;;;;;;;9.68;0.63;;;11.00;99.90;;;;;;5053497;28;20021;-88
2023/04/11 09:12:46;;;;;;;10.23;0.73;;;11.00;99.90;;;;;;5052927;28;20077;-88
2023/04/11 09:15:23;;;;;;;6.35;0.63;;;10.90;99.90;;;;;;5053074;28;20029;-88
2023/04/11 09:17:49;;;;;;;9.82;0.60;;;10.90;99.90;;;;;;5052092;28;20036;-87
2023/04/11 09:20:28;;;;;;;14.10;0.50;;;10.90;99.90;;;;;;5043171;28;20013;-87
2023/04/11 09:22:53;;;;;;;7.25;1.33;;;11.10;99.90;;;;;;5052548;28;20118;-88
2023/04/11 09:25:20;;;;;;;5.22;0.40;;;11.30;99.90;;;;;;5053006;28;20037;-87
2023/04/11 09:27:47;;;;;;;6.65;0.70;;;11.40;99.90;;;;;;5053346;28;20037;-88
2023/04/11 09:30:24;;;;;;;9.52;0.60;;;11.50;99.90;;;;;;5044341;28;20026;-87
2023/04/11 09:32:53;;;;;;;6.88;0.63;;;11.60;99.90;;;;;;5038940;28;20033;-87
2023/04/11 09:35:24;;;;;;;10.90;0.75;;;11.70;99.90;;;;;;5050415;28;20048;-87
2023/04/11 09:37:52;;;;;;;6.90;0.65;;;11.70;99.90;;;;;;5050958;28;20469;-87
2023/04/11 09:40:21;;;;;;;9.30;0.57;;;11.70;99.90;;;;;;5052612;28;20033;-87
2023/04/11 09:42:48;;;;;;;8.32;0.90;;;11.70;99.90;;;;;;5055483;28;20040;-88
2023/04/11 09:45:18;;;;;;;3.85;0.50;;;11.60;99.90;;;;;;5054227;28;20045;-88
2023/04/11 09:47:46;;;;;;;5.72;0.40;;;11.40;99.90;;;;;;5053800;28;20132;-89
2023/04/11 09:50:12;;;;;;;5.78;0.50;;;11.30;99.90;;;;;;5054638;28;20108;-89
2023/04/11 09:52:40;;;;;;;4.78;0.35;;;11.20;99.90;;;;;;5053352;28;20029;-88
2023/04/11 09:55:06;;;;;;;4.97;0.40;;;11.10;99.90;;;;;;5053422;28;20025;-87
2023/04/11 09:57:33;;;;;;;7.10;0.60;;;11.20;99.90;;;;;;5049681;28;20017;-88
2023/04/11 10:00:03;;;;;;;4.75;0.40;;;11.40;99.90;;;;;;5053501;28;20049;-88
2023/04/11 10:02:28;;;;;;;7.72;0.52;;;11.70;99.90;;;;;;5053797;28;20065;-88
2023/04/11 10:04:59;;;;;;;4.70;0.35;;;11.80;99.90;;;;;;5053638;28;20021;-88
2023/04/11 10:07:24;;;;;;;5.28;0.40;;;11.70;99.90;;;;;;5054861;28;20435;-89
2023/04/11 10:09:50;;;;;;;7.35;0.43;;;11.70;99.90;;;;;;5054663;28;20017;-88
2023/04/11 10:12:32;;;;;;;7.70;0.60;;;11.80;99.90;;;;;;5053153;28;20057;-87
2023/04/11 10:15:07;;;;;;;5.93;0.30;;;11.90;99.90;;;;;;5053550;28;20139;-88
2023/04/11 10:17:33;;;;;;;6.13;0.90;;;12.10;99.90;;;;;;5036621;28;20025;-88
2023/04/11 10:19:58;;;;;;;3.75;0.32;;;12.20;99.90;;;;;;5050669;28;20130;-87
2023/04/11 10:22:42;;;;;;;5.47;0.40;;;12.30;99.90;;;;;;5050243;28;20029;-87
2023/04/11 10:25:15;;;;;;;7.22;0.50;;;12.30;99.90;;;;;;5055235;28;20021;-87
2023/04/11 10:28:00;;;;;;;7.15;1.08;;;12.40;99.90;;;;;;5048979;28;20033;-88
2023/04/11 10:30:43;;;;;;;6.07;0.50;;;12.40;99.90;;;;;;5050576;28;20033;-88
2023/04/11 10:33:16;;;;;;;4.15;0.40;;;12.50;99.90;;;;;;5054457;28;20025;-88
2023/04/11 10:36:08;;;;;;;5.88;0.50;;;12.50;99.90;;;;;;5057392;28;20048;-83
2023/04/11 10:38:40;;;;;;;9.90;0.63;;;12.50;99.90;;;;;;5050059;28;20025;-83
2023/04/11 10:41:30;;;;;;;2.83;0.30;;;12.50;99.30;;;;;;5046193;28;20029;-87
2023/04/11 10:44:23;;;;;;;3.40;0.30;;;12.30;95.60;;;;;;5053361;28;20068;-88
2023/04/11 10:46:52;;;;;;;4.80;0.40;;;12.00;95.00;;;;;;5054394;28;20090;-87
2023/04/11 10:49:38;;;;;;;4.10;0.38;;;11.80;95.40;;;;;;5052398;28;20083;-88
2023/04/11 10:52:22;;;;;;;3.58;0.25;;;11.80;96.00;;;;;;5042545;28;20103;-87
2023/04/11 10:54:50;;;;;;;6.97;0.65;;;12.00;95.80;;;;;;5055682;28;20025;-88
2023/04/11 10:57:16;;;;;;;8.82;1.15;;;12.10;95.00;;;;;;5043350;28;20501;-88
2023/04/11 10:59:41;;;;;;;4.05;0.50;;;12.10;95.00;;;;;;5054641;28;20440;-87
2023/04/11 11:02:08;;;;;;;8.25;0.55;;;12.20;95.10;;;;;;5054345;28;20024;-88
2023/04/11 11:04:35;;;;;;;4.90;0.38;;;12.30;95.10;;;;;;5055771;28;20033;-88
2023/04/11 11:07:04;;;;;;;5.47;0.50;;;12.40;95.20;;;;;;5055168;28;20036;-88
2023/04/11 11:09:31;;;;;;;4.38;0.45;;;12.40;94.80;;;;;;5046923;28;20078;-88
2023/04/11 11:12:13;;;;;;;8.57;0.93;;;12.30;93.50;;;;;;5056034;28;20432;-87
2023/04/11 11:14:40;;;;;;;;;;;12.20;92.80;;;;;;5051652;28;20039;-88
2023/04/11 11:17:06;;;;;;;3.30;0.30;;;12.20;93.70;;;;;;5057889;28;19904;-87
2023/04/11 11:19:32;;;;;;;4.93;0.40;;;12.20;93.80;;;;;;5054188;28;20013;-88
2023/04/11 11:22:05;;;;;;;4.90;0.40;;;12.20;93.90;;;;;;5057734;28;20072;-88
2023/04/11 11:24:30;;;;;;;6.72;0.32;;;12.30;93.80;;;;;;5055003;28;20028;-88
2023/04/11 11:26:57;;;;;;;6.43;0.50;;;12.40;94.90;;;;;;5049729;28;20049;-88
2023/04/11 11:29:34;;;;;;;6.95;0.32;;;12.60;94.70;;;;;;5045853;28;20036;-89
2023/04/11 11:32:03;;;;;;;6.10;0.50;;;12.80;93.80;;;;;;5052577;28;20087;-87
2023/04/11 11:34:31;;;;;;;3.85;0.25;;;12.90;92.50;;;;;;5056429;28;20481;-88
2023/04/11 11:37:00;;;;;;;3.20;0.30;;;12.90;91.40;;;;;;5053687;28;20039;-88
2023/04/11 11:39:27;;;;;;;2.67;0.20;;;12.90;91.10;;;;;;5051957;28;20496;-88
2023/04/11 11:41:53;;;;;;;2.38;0.20;;;12.90;91.50;;;;;;5055422;28;20111;-89
2023/04/11 11:44:27;;;;;;;3.30;0.40;;;13.00;91.10;;;;;;5054587;28;20119;-88
2023/04/11 11:47:11;;;;;;;4.90;0.30;;;13.10;90.60;;;;;;5053746;28;20037;-87
2023/04/11 11:49:51;;;;;;;4.32;0.60;;;13.00;89.50;;;;;;5048825;28;20043;-89
2023/04/11 11:52:36;;;;;;;3.30;0.30;;;12.90;89.10;;;;;;5051071;28;20036;-89
2023/04/11 11:55:04;;;;;;;4.95;0.52;;;13.00;89.50;;;;;;5041043;28;20021;-87
2023/04/11 11:57:31;;;;;;;6.35;0.30;;;13.00;89.20;;;;;;5054313;28;20481;-87
2023/04/11 11:59:59;;;;;;;7.57;0.50;;;13.20;89.90;;;;;;5049494;28;20045;-87
2023/04/11 12:02:26;;;;;;;6.10;0.75;;;13.30;90.00;;;;;;5051809;28;20025;-87
2023/04/11 12:04:59;;;;;;;7.10;0.95;;;13.40;90.20;;;;;;5055283;28;20064;-88
2023/04/11 12:07:25;;;;;;;10.63;1.30;;;13.50;90.20;;;;;;5058579;28;20043;-88
2023/04/11 12:10:10;;;;;;;3.20;0.30;;;13.50;89.90;;;;;;5056557;28;20033;-87
2023/04/11 12:12:42;;;;;;;6.32;0.52;;;13.60;90.30;;;;;;5059460;28;20108;-87
2023/04/11 12:15:12;;;;;;;;;;;13.50;90.60;;;;;;5051755;28;20039;-89
2023/04/11 12:17:38;;;;;;;13.00;0.70;;;13.40;90.00;;;;;;5053159;28;19916;-88
2023/04/11 12:20:09;;;;;;;6.97;1.02;;;13.40;91.20;;;;;;5054977;28;20029;-88
2023/04/11 12:22:35;;;;;;;5.57;0.50;;;13.50;91.20;;;;;;5058203;28;20021;-89
2023/04/11 12:25:08;;;;;;;6.88;0.50;;;13.50;90.30;;;;;;5049033;28;20036;-86
2023/04/11 12:27:35;;;;;;;4.75;0.30;;;13.30;90.00;;;;;;5056248;28;20065;-87
2023/04/11 12:30:01;;;;;;;3.28;0.30;;;13.40;89.60;;;;;;5061554;28;20024;-88
2023/04/11 12:32:27;;;;;;;3.42;0.30;;;13.70;87.60;;;;;;5058565;28;20025;-86
2023/04/11 12:34:53;;;;;;;3.50;0.40;;;13.70;83.40;;;;;;5050765;28;20108;-87
2023/04/11 12:37:19;;;;;;;4.90;0.38;;;13.60;82.90;;;;;;5047112;28;20037;-88
2023/04/11 12:39:45;;;;;;;4.00;0.40;;;13.50;78.80;;;;;;5051857;28;20060;-88
2023/04/11 12:42:10;;;;;;;2.10;0.20;;;13.30;76.90;;;;;;5055721;28;20032;-87
2023/04/11 12:44:36;;;;;;;2.22;0.20;;;13.20;76.80;;;;;;5057557;28;20032;-88
2023/04/11 12:47:01;;;;;;;3.65;0.20;;;13.20;76.60;;;;;;5056928;28;20135;-88
2023/04/11 12:49:27;;;;;;;5.88;0.40;;;13.20;76.00;;;;;;5051410;28;20111;-88